Time,TemperatureF,DewpointF,PressureIn,WindDirection,WindDirectionDegrees,WindSpeedMPH,WindSpeedGustMPH,Humidity,HourlyPrecipIn,Conditions,Clouds,dailyrainin,SolarRadiationWatts/m^2,SoftwareType,DateUTC
2013-03-11 00:00:00,45.0,40.0,-100.00,SSE,157,3.0,-999.0,82,-99.99,,,-99.99,0.000000,,2013-03-11 04:00:00,
2013-03-11 00:33:00,45.0,40.0,-100.00,SSE,157,3.0,-999.0,82,-99.99,,,-99.99,0.000000,,2013-03-11 04:33:00,
2013-03-11 00:43:00,45.0,40.0,-100.00,SSE,157,3.0,-999.0,82,-99.99,,,-99.99,0.000000,,2013-03-11 04:43:00,
2013-03-11 00:53:00,45.0,40.0,-100.00,SSE,157,3.0,-999.0,82,-99.99,,,-99.99,0.000000,,2013-03-11 04:53:00,
2013-03-11 02:00:00,49.0,38.0,-100.00,SSE,157,4.0,-999.0,64,-99.99,,,-99.99,0.000000,,2013-03-11 06:00:00,
2013-03-11 02:42:00,49.0,38.0,-100.00,SSE,157,4.0,-999.0,64,-99.99,,,-99.99,0.000000,,2013-03-11 06:42:00,
2013-03-11 02:53:00,49.0,38.0,-100.00,SSE,157,4.0,-999.0,64,-99.99,,,-99.99,0.000000,,2013-03-11 06:53:00,
2013-03-11 03:00:00,50.0,38.0,-100.00,South,180,6.0,-999.0,63,-99.99,,,-99.99,0.000000,,2013-03-11 07:00:00,
2013-03-11 03:42:00,50.0,38.0,-100.00,South,180,6.0,-999.0,63,-99.99,,,-99.99,0.000000,,2013-03-11 07:42:00,
2013-03-11 03:52:00,50.0,38.0,-100.00,South,180,6.0,-999.0,63,-99.99,,,-99.99,0.000000,,2013-03-11 07:52:00,
2013-03-11 04:00:00,48.0,40.0,-100.00,South,180,5.0,-999.0,74,-99.99,,,-99.99,0.000000,,2013-03-11 08:00:00,
2013-03-11 04:42:00,48.0,40.0,-100.00,South,180,5.0,-999.0,74,-99.99,,,-99.99,0.000000,,2013-03-11 08:42:00,
2013-03-11 04:52:00,48.0,40.0,-100.00,South,180,5.0,-999.0,74,-99.99,,,-99.99,0.000000,,2013-03-11 08:52:00,
2013-03-11 05:00:00,45.0,41.0,-100.00,SSW,202,2.0,-999.0,88,0.03,,,-99.99,0.000000,,2013-03-11 09:00:00,
2013-03-11 05:42:00,45.0,41.0,-100.00,SSW,202,2.0,-999.0,88,0.03,,,-99.99,0.000000,,2013-03-11 09:42:00,
2013-03-11 05:53:00,45.0,41.0,-100.00,SSW,202,2.0,-999.0,88,0.03,,,-99.99,0.000000,,2013-03-11 09:53:00,
2013-03-11 06:00:00,44.0,42.0,-100.00,South,180,2.0,-999.0,93,0.01,,,-99.99,0.000000,,2013-03-11 10:00:00,
2013-03-11 06:42:00,44.0,42.0,-100.00,South,180,2.0,-999.0,93,0.01,,,-99.99,0.000000,,2013-03-11 10:42:00,
2013-03-11 06:53:00,44.0,42.0,-100.00,South,180,2.0,-999.0,93,0.01,,,-99.99,0.000000,,2013-03-11 10:53:00,
2013-03-11 07:00:00,44.0,43.0,-100.00,SSE,157,2.0,-999.0,95,-99.99,,,-99.99,0.000000,,2013-03-11 11:00:00,
2013-03-11 07:33:00,44.0,43.0,-100.00,SSE,157,2.0,-999.0,95,-99.99,,,-99.99,0.000000,,2013-03-11 11:33:00,
2013-03-11 07:43:00,44.0,43.0,-100.00,SSE,157,2.0,-999.0,95,-99.99,,,-99.99,0.000000,,2013-03-11 11:43:00,
2013-03-11 07:53:00,44.0,43.0,-100.00,SSE,157,2.0,-999.0,95,-99.99,,,-99.99,0.000000,,2013-03-11 11:53:00,
2013-03-11 08:00:00,45.0,44.0,-100.00,SSE,157,2.0,-999.0,97,-99.99,,,-99.99,0.000000,,2013-03-11 12:00:00,
2013-03-11 08:43:00,45.0,44.0,-100.00,SSE,157,2.0,-999.0,97,-99.99,,,-99.99,0.000000,,2013-03-11 12:43:00,
2013-03-11 08:53:00,45.0,44.0,-100.00,SSE,157,2.0,-999.0,97,-99.99,,,-99.99,0.000000,,2013-03-11 12:53:00,
2013-03-11 09:00:00,45.0,44.0,-100.00,South,180,2.0,-999.0,97,-99.99,,,-99.99,5.800000,,2013-03-11 13:00:00,
2013-03-11 09:33:00,45.0,44.0,-100.00,South,180,2.0,-999.0,97,-99.99,,,-99.99,5.800000,,2013-03-11 13:33:00,
2013-03-11 09:43:00,45.0,44.0,-100.00,South,180,2.0,-999.0,97,-99.99,,,-99.99,5.800000,,2013-03-11 13:43:00,
2013-03-11 09:53:00,45.0,44.0,-100.00,South,180,2.0,-999.0,97,-99.99,,,-99.99,5.800000,,2013-03-11 13:53:00,
2013-03-11 10:00:00,44.0,43.0,-100.00,SE,135,0.0,-999.0,97,-99.99,,,-99.99,33.639999,,2013-03-11 14:00:00,
2013-03-11 10:43:00,44.0,43.0,-100.00,SE,135,0.0,-999.0,97,-99.99,,,-99.99,33.639999,,2013-03-11 14:43:00,
2013-03-11 10:53:00,44.0,43.0,-100.00,SE,135,0.0,-999.0,97,-99.99,,,-99.99,33.639999,,2013-03-11 14:53:00,
2013-03-11 11:00:00,44.0,44.0,-100.00,SE,135,2.0,-999.0,98,-99.99,,,-99.99,91.639999,,2013-03-11 15:00:00,
2013-03-11 11:43:00,44.0,44.0,-100.00,SE,135,2.0,-999.0,98,-99.99,,,-99.99,91.639999,,2013-03-11 15:43:00,
2013-03-11 11:53:00,44.0,44.0,-100.00,SE,135,2.0,-999.0,98,-99.99,,,-99.99,91.639999,,2013-03-11 15:53:00,
2013-03-11 12:00:00,45.0,45.0,-100.00,South,180,2.0,-999.0,98,-99.99,,,-99.99,124.120003,,2013-03-11 16:00:00,
2013-03-11 12:43:00,45.0,45.0,-100.00,South,180,2.0,-999.0,98,-99.99,,,-99.99,124.120003,,2013-03-11 16:43:00,
2013-03-11 12:53:00,45.0,45.0,-100.00,South,180,2.0,-999.0,98,-99.99,,,-99.99,124.120003,,2013-03-11 16:53:00,
2013-03-11 13:00:00,46.0,45.0,-100.00,SSE,157,2.0,-999.0,96,-99.99,,,-99.99,120.639999,,2013-03-11 17:00:00,
2013-03-11 13:42:00,46.0,45.0,-100.00,SSE,157,2.0,-999.0,96,-99.99,,,-99.99,120.639999,,2013-03-11 17:42:00,
2013-03-11 13:53:00,46.0,45.0,-100.00,SSE,157,2.0,-999.0,96,-99.99,,,-99.99,120.639999,,2013-03-11 17:53:00,
2013-03-11 14:00:00,46.0,45.0,-100.00,SSE,157,3.0,-999.0,95,0.01,,,-99.99,170.520004,,2013-03-11 18:00:00,
2013-03-11 14:43:00,46.0,45.0,-100.00,SSE,157,3.0,-999.0,95,0.01,,,-99.99,170.520004,,2013-03-11 18:43:00,
2013-03-11 14:53:00,46.0,45.0,-100.00,SSE,157,3.0,-999.0,95,0.01,,,-99.99,170.520004,,2013-03-11 18:53:00,
2013-03-11 15:00:00,47.0,46.0,-100.00,South,180,3.0,-999.0,93,0.02,,,-99.99,131.080002,,2013-03-11 19:00:00,
2013-03-11 15:43:00,47.0,46.0,-100.00,South,180,3.0,-999.0,93,0.02,,,-99.99,131.080002,,2013-03-11 19:43:00,
2013-03-11 15:53:00,47.0,46.0,-100.00,South,180,3.0,-999.0,93,0.02,,,-99.99,131.080002,,2013-03-11 19:53:00,
2013-03-11 16:00:00,44.0,41.0,-100.00,West,270,6.0,-999.0,90,-99.99,,,-99.99,92.800003,,2013-03-11 20:00:00,
2013-03-11 16:44:00,44.0,41.0,-100.00,West,270,6.0,-999.0,90,-99.99,,,-99.99,92.800003,,2013-03-11 20:44:00,
2013-03-11 16:53:00,44.0,41.0,-100.00,West,270,6.0,-999.0,90,-99.99,,,-99.99,92.800003,,2013-03-11 20:53:00,
2013-03-11 17:00:00,42.0,39.0,-100.00,WSW,247,6.0,-999.0,88,-99.99,,,-99.99,63.799999,,2013-03-11 21:00:00,
2013-03-11 17:44:00,42.0,39.0,-100.00,WSW,247,6.0,-999.0,88,-99.99,,,-99.99,63.799999,,2013-03-11 21:44:00,
2013-03-11 17:54:00,42.0,39.0,-100.00,WSW,247,6.0,-999.0,88,-99.99,,,-99.99,63.799999,,2013-03-11 21:54:00,
2013-03-11 18:00:00,39.0,36.0,-100.00,WSW,247,8.0,-999.0,88,-99.99,,,-99.99,32.480000,,2013-03-11 22:00:00,
2013-03-11 18:43:00,39.0,36.0,-100.00,WSW,247,8.0,-999.0,88,-99.99,,,-99.99,32.480000,,2013-03-11 22:43:00,
2013-03-11 18:53:00,39.0,36.0,-100.00,WSW,247,8.0,-999.0,88,-99.99,,,-99.99,32.480000,,2013-03-11 22:53:00,
2013-03-11 19:00:00,37.0,34.0,-100.00,SW,225,12.0,-999.0,88,-99.99,,,-99.99,11.600000,,2013-03-11 23:00:00,
2013-03-11 19:43:00,37.0,34.0,-100.00,SW,225,12.0,-999.0,88,-99.99,,,-99.99,11.600000,,2013-03-11 23:43:00,
2013-03-11 19:54:00,37.0,34.0,-100.00,SW,225,12.0,-999.0,88,-99.99,,,-99.99,11.600000,,2013-03-11 23:54:00,
2013-03-11 20:00:00,35.0,31.0,-100.00,WSW,247,10.0,-999.0,88,-99.99,,,-99.99,6.960000,,2013-03-12 00:00:00,
2013-03-11 20:43:00,35.0,31.0,-100.00,WSW,247,10.0,-999.0,88,-99.99,,,-99.99,6.960000,,2013-03-12 00:43:00,
2013-03-11 20:54:00,35.0,31.0,-100.00,WSW,247,10.0,-999.0,88,-99.99,,,-99.99,6.960000,,2013-03-12 00:54:00,
2013-03-11 21:00:00,34.0,31.0,-100.00,SW,225,11.0,-999.0,87,-99.99,,,-99.99,0.000000,,2013-03-12 01:00:00,
2013-03-11 21:33:00,34.0,31.0,-100.00,SW,225,11.0,-999.0,87,-99.99,,,-99.99,0.000000,,2013-03-12 01:33:00,
2013-03-11 21:42:00,34.0,31.0,-100.00,SW,225,11.0,-999.0,87,-99.99,,,-99.99,0.000000,,2013-03-12 01:42:00,
2013-03-11 21:53:00,34.0,31.0,-100.00,SW,225,11.0,-999.0,87,-99.99,,,-99.99,0.000000,,2013-03-12 01:53:00,
2013-03-11 22:00:00,34.0,31.0,-100.00,SW,225,12.0,-999.0,88,-99.99,,,-99.99,0.000000,,2013-03-12 02:00:00,
2013-03-11 22:43:00,34.0,31.0,-100.00,SW,225,12.0,-999.0,88,-99.99,,,-99.99,0.000000,,2013-03-12 02:43:00,
2013-03-11 22:52:00,34.0,31.0,-100.00,SW,225,12.0,-999.0,88,-99.99,,,-99.99,0.000000,,2013-03-12 02:52:00,
2013-03-11 23:00:00,33.0,30.0,-100.00,WSW,247,11.0,-999.0,89,-99.99,,,-99.99,0.000000,,2013-03-12 03:00:00,
2013-03-11 23:43:00,33.0,30.0,-100.00,WSW,247,11.0,-999.0,89,-99.99,,,-99.99,0.000000,,2013-03-12 03:43:00,
2013-03-11 23:53:00,33.0,30.0,-100.00,WSW,247,11.0,-999.0,89,-99.99,,,-99.99,0.000000,,2013-03-12 03:53:00,